createdAt,value
2023-02-25T00:01:57.724Z,74.38
2023-02-25T00:04:31.633Z,74.46
2023-02-25T00:06:59.679Z,74.47
2023-02-25T00:09:28.284Z,74.31
2023-02-25T00:11:56.088Z,74.51
2023-02-25T00:14:23.784Z,74.30
2023-02-25T00:16:51.585Z,74.25
2023-02-25T00:19:19.322Z,74.20
2023-02-25T00:21:47.032Z,74.41
2023-02-25T00:24:17.001Z,74.35
2023-02-25T00:26:45.331Z,74.40
2023-02-25T00:29:13.162Z,74.27
2023-02-25T00:31:41.562Z,74.51
2023-02-25T00:34:09.500Z,74.80
2023-02-25T00:36:37.369Z,74.66
2023-02-25T00:39:05.800Z,74.54
2023-02-25T00:41:33.550Z,74.54
2023-02-25T00:44:02.782Z,74.54
2023-02-25T00:46:31.408Z,74.59
2023-02-25T00:49:00.203Z,74.46
2023-02-25T00:51:30.989Z,74.44
2023-02-25T00:53:58.813Z,74.57
2023-02-25T00:56:27.247Z,74.73
2023-02-25T00:58:55.661Z,74.69
2023-02-25T01:01:29.415Z,74.83
2023-02-25T01:03:57.796Z,74.68
2023-02-25T01:06:27.688Z,74.71
2023-02-25T01:08:56.919Z,74.63
2023-02-25T01:11:30.148Z,74.75
2023-02-25T01:14:03.636Z,74.57
2023-02-25T01:16:33.390Z,74.69
2023-02-25T01:19:04.008Z,74.72
2023-02-25T01:21:35.089Z,74.72
2023-02-25T01:24:07.066Z,74.67
2023-02-25T01:26:39.772Z,74.69
2023-02-25T01:29:08.964Z,74.75
2023-02-25T01:31:38.290Z,74.58
2023-02-25T01:34:08.313Z,74.71
2023-02-25T01:36:37.316Z,74.74
2023-02-25T01:39:05.423Z,74.80
2023-02-25T01:41:35.525Z,74.74
2023-02-25T01:44:04.763Z,74.78
2023-02-25T01:46:32.711Z,74.67
2023-02-25T01:49:02.210Z,74.59
2023-02-25T01:51:33.402Z,74.73
2023-02-25T01:54:03.830Z,74.73
2023-02-25T01:56:32.038Z,74.83
2023-02-25T01:59:00.538Z,74.93
2023-02-25T02:01:35.445Z,75.12
2023-02-25T02:04:06.759Z,74.92
2023-02-25T02:06:42.818Z,74.86
2023-02-25T02:09:18.132Z,74.76
2023-02-25T02:11:45.915Z,74.90
2023-02-25T02:14:23.429Z,74.78
2023-02-25T02:17:06.313Z,74.97
2023-02-25T02:19:52.280Z,74.84
2023-02-25T02:22:45.244Z,74.91
2023-02-25T02:25:51.672Z,74.97
2023-02-25T02:28:32.819Z,75.02
2023-02-25T02:31:15.704Z,74.94
2023-02-25T02:33:59.654Z,74.98
2023-02-25T02:36:36.220Z,74.92
2023-02-25T02:39:25.215Z,75.12
2023-02-25T02:42:11.307Z,74.80
2023-02-25T02:44:48.123Z,74.86
2023-02-25T02:47:24.236Z,75.04
2023-02-25T02:49:57.451Z,74.99
2023-02-25T02:52:30.440Z,75.13
2023-02-25T02:55:10.299Z,75.07
2023-02-25T02:57:41.772Z,75.05
2023-02-25T03:00:19.102Z,75.01
2023-02-25T03:02:55.891Z,75.00
2023-02-25T03:05:27.818Z,75.17
2023-02-25T03:08:08.365Z,75.14
2023-02-25T03:10:36.563Z,75.38
2023-02-25T03:13:04.700Z,75.37
2023-02-25T03:15:34.450Z,75.33
2023-02-25T03:18:12.280Z,75.19
2023-02-25T03:20:49.479Z,75.17
2023-02-25T03:23:26.744Z,75.15
2023-02-25T03:26:42.887Z,75.00
2023-02-25T03:29:23.943Z,75.14
2023-02-25T03:32:09.437Z,75.09
2023-02-25T03:34:42.469Z,75.02
2023-02-25T03:37:16.702Z,75.10
2023-02-25T03:39:52.108Z,75.14
2023-02-25T03:42:26.022Z,75.17
2023-02-25T03:44:56.862Z,75.22
2023-02-25T03:47:29.264Z,75.63
2023-02-25T03:50:12.424Z,75.72
2023-02-25T03:52:41.378Z,75.03
2023-02-25T03:55:10.410Z,74.83
2023-02-25T03:57:44.233Z,74.99
2023-02-25T04:00:27.400Z,75.03
2023-02-25T04:02:55.680Z,75.06
2023-02-25T04:05:27.832Z,75.11
2023-02-25T04:07:57.900Z,75.34
2023-02-25T04:10:26.401Z,75.07
2023-02-25T04:12:54.185Z,74.94
2023-02-25T04:15:22.516Z,75.47
2023-02-25T04:17:50.723Z,75.12
2023-02-25T04:20:19.799Z,75.16
2023-02-25T04:22:47.520Z,75.02
2023-02-25T04:25:15.273Z,75.32
2023-02-25T04:27:42.998Z,75.22
2023-02-25T04:30:11.688Z,75.17
2023-02-25T04:32:40.042Z,75.12
2023-02-25T04:35:11.841Z,75.08
2023-02-25T04:37:41.187Z,75.47
2023-02-25T04:40:15.158Z,75.53
2023-02-25T04:42:43.480Z,75.59
2023-02-25T04:45:12.632Z,75.40
2023-02-25T04:47:40.733Z,75.48
2023-02-25T04:50:10.256Z,75.27
2023-02-25T04:52:38.048Z,75.29
2023-02-25T04:55:06.397Z,75.11
2023-02-25T04:57:34.676Z,75.11
2023-02-25T05:00:02.546Z,75.11
2023-02-25T05:02:32.830Z,75.21
2023-02-25T05:05:00.683Z,75.13
2023-02-25T05:07:28.444Z,75.41
2023-02-25T05:09:56.165Z,75.20
2023-02-25T05:12:23.904Z,75.00
2023-02-25T05:14:52.243Z,75.26
2023-02-25T05:17:20.005Z,75.09
2023-02-25T05:19:47.737Z,75.12
2023-02-25T05:22:15.521Z,75.15
2023-02-25T05:24:43.521Z,75.35
2023-02-25T05:27:11.402Z,75.12
2023-02-25T05:29:39.747Z,75.37
2023-02-25T05:32:07.836Z,75.38
2023-02-25T05:34:35.698Z,75.27
2023-02-25T05:37:03.643Z,75.33
2023-02-25T05:39:31.369Z,75.26
2023-02-25T05:41:59.137Z,75.17
2023-02-25T05:44:27.416Z,75.27
2023-02-25T05:46:55.288Z,75.22
2023-02-25T05:49:23.251Z,75.10
2023-02-25T05:51:51.195Z,75.12
2023-02-25T05:54:18.929Z,75.11
2023-02-25T05:56:46.717Z,75.33
2023-02-25T05:59:16.814Z,75.42
2023-02-25T06:01:44.875Z,75.45
2023-02-25T06:04:12.722Z,75.78
2023-02-25T06:06:41.831Z,76.04
2023-02-25T06:09:10.458Z,76.34
2023-02-25T06:11:38.742Z,76.02
2023-02-25T06:14:06.453Z,76.30
2023-02-25T06:16:34.248Z,76.25
2023-02-25T06:19:02.537Z,76.35
2023-02-25T06:21:31.428Z,76.32
2023-02-25T06:23:59.343Z,75.99
2023-02-25T06:26:27.650Z,76.30
2023-02-25T06:28:55.727Z,76.15
2023-02-25T06:31:25.237Z,75.93
2023-02-25T06:33:55.117Z,76.10
2023-02-25T06:36:23.312Z,76.16
2023-02-25T06:38:51.301Z,75.91
2023-02-25T06:41:22.107Z,75.95
2023-02-25T06:43:52.844Z,76.20
2023-02-25T06:46:24.020Z,76.22
2023-02-25T06:48:52.707Z,76.40
2023-02-25T06:51:22.441Z,76.19
2023-02-25T06:53:51.171Z,75.74
2023-02-25T06:56:20.408Z,75.91
2023-02-25T06:58:48.304Z,75.65
2023-02-25T07:01:17.131Z,75.72
2023-02-25T07:03:45.571Z,75.58
2023-02-25T07:06:16.732Z,75.74
2023-02-25T07:08:45.343Z,75.55
2023-02-25T07:11:21.792Z,75.41
2023-02-25T07:13:50.417Z,75.48
2023-02-25T07:16:18.615Z,75.64
2023-02-25T07:18:46.813Z,75.57
2023-02-25T07:21:15.884Z,75.56
2023-02-25T07:23:44.533Z,75.51
2023-02-25T07:26:14.306Z,75.80
2023-02-25T07:28:43.446Z,75.59
2023-02-25T07:31:17.554Z,75.45
2023-02-25T07:33:45.904Z,75.54
2023-02-25T07:36:15.035Z,75.47
2023-02-25T07:38:43.170Z,75.73
2023-02-25T07:41:14.315Z,75.47
2023-02-25T07:43:43.310Z,75.64
2023-02-25T07:46:11.355Z,75.63
2023-02-25T07:48:39.235Z,75.43
2023-02-25T07:51:13.509Z,75.63
2023-02-25T07:53:41.869Z,75.56
2023-02-25T07:56:11.482Z,75.49
2023-02-25T07:58:39.856Z,75.55
2023-02-25T08:01:09.417Z,75.65
2023-02-25T08:03:38.485Z,75.22
2023-02-25T08:06:09.663Z,75.59
2023-02-25T08:08:38.234Z,75.48
2023-02-25T08:11:11.178Z,75.68
2023-02-25T08:13:39.654Z,75.34
2023-02-25T08:16:14.393Z,75.17
2023-02-25T08:18:43.708Z,75.17
2023-02-25T08:21:13.167Z,75.36
2023-02-25T08:23:41.164Z,75.21
2023-02-25T08:26:12.106Z,75.08
2023-02-25T08:28:39.905Z,74.90
2023-02-25T08:31:11.977Z,75.23
2023-02-25T08:33:43.397Z,75.27
2023-02-25T08:36:17.688Z,75.34
2023-02-25T08:38:45.445Z,75.09
2023-02-25T08:41:13.372Z,74.89
2023-02-25T08:43:42.074Z,75.07
2023-02-25T08:46:10.389Z,75.05
2023-02-25T08:48:38.240Z,75.04
2023-02-25T08:51:08.774Z,74.52
2023-02-25T08:53:38.994Z,74.65
2023-02-25T08:56:10.535Z,74.87
2023-02-25T08:58:39.557Z,74.69
2023-02-25T09:01:16.398Z,74.75
2023-02-25T09:03:53.243Z,74.27
2023-02-25T09:06:24.233Z,74.70
2023-02-25T09:08:53.279Z,74.79
2023-02-25T09:11:22.696Z,74.63
2023-02-25T09:13:52.177Z,74.01
2023-02-25T09:16:20.378Z,74.38
2023-02-25T09:18:51.676Z,74.19
2023-02-25T09:21:20.280Z,74.23
2023-02-25T09:23:48.473Z,74.49
2023-02-25T09:26:16.266Z,74.60
2023-02-25T09:28:44.712Z,74.43
2023-02-25T09:31:12.598Z,74.47
2023-02-25T09:33:42.801Z,74.38
2023-02-25T09:36:13.706Z,74.67
2023-02-25T09:38:42.825Z,74.62
2023-02-25T09:41:30.432Z,74.50
2023-02-25T09:44:05.893Z,74.04
2023-02-25T09:46:36.338Z,73.41
2023-02-25T09:49:35.161Z,73.78
2023-02-25T09:52:18.611Z,73.89
2023-02-25T09:54:50.205Z,73.77
2023-02-25T09:57:21.658Z,73.89
2023-02-25T09:59:53.680Z,73.78
2023-02-25T10:02:32.267Z,73.50
2023-02-25T10:05:18.844Z,73.69
2023-02-25T10:08:02.287Z,73.69
2023-02-25T10:10:52.430Z,73.45
2023-02-25T10:13:22.892Z,73.32
2023-02-25T10:16:25.069Z,73.26
2023-02-25T10:19:05.818Z,73.89
2023-02-25T10:21:49.935Z,73.19
2023-02-25T10:24:24.027Z,73.24
2023-02-25T10:27:00.003Z,73.22
2023-02-25T10:29:35.306Z,73.06
2023-02-25T10:32:16.786Z,73.10
2023-02-25T10:34:44.832Z,73.33
2023-02-25T10:37:27.281Z,72.80
2023-02-25T10:39:58.952Z,72.84
2023-02-25T10:42:27.369Z,73.03
2023-02-25T10:45:02.027Z,73.12
2023-02-25T10:47:34.841Z,73.66
2023-02-25T10:50:25.816Z,74.58
2023-02-25T10:53:12.504Z,75.12
2023-02-25T10:55:43.412Z,74.47
2023-02-25T10:58:29.671Z,74.16
2023-02-25T11:01:07.401Z,74.32
2023-02-25T11:03:59.017Z,74.24
2023-02-25T11:06:32.458Z,73.96
2023-02-25T11:09:01.036Z,73.84
2023-02-25T11:11:32.502Z,74.02
2023-02-25T11:14:00.835Z,73.95
2023-02-25T11:16:31.065Z,73.92
2023-02-25T11:19:02.680Z,73.80
2023-02-25T11:21:35.067Z,73.85
2023-02-25T11:24:17.383Z,73.72
2023-02-25T11:26:48.313Z,73.71
2023-02-25T11:29:21.208Z,73.60
2023-02-25T11:32:09.104Z,73.76
2023-02-25T11:34:56.192Z,73.86
2023-02-25T11:37:45.594Z,73.90
2023-02-25T11:40:24.997Z,73.91
2023-02-25T11:43:04.984Z,74.00
2023-02-25T11:45:36.182Z,74.08
2023-02-25T11:48:07.178Z,74.00
2023-02-25T11:50:48.792Z,74.27
2023-02-25T11:53:45.241Z,74.34
2023-02-25T11:56:35.712Z,74.48
2023-02-25T11:59:31.585Z,74.33
2023-02-25T12:02:47.773Z,74.14
2023-02-25T12:05:43.673Z,73.87
2023-02-25T12:08:24.039Z,73.76
2023-02-25T12:11:09.864Z,73.83
2023-02-25T12:13:56.338Z,73.81
2023-02-25T12:16:36.593Z,74.14
2023-02-25T12:19:36.073Z,74.09
2023-02-25T12:22:12.774Z,74.07
2023-02-25T12:25:12.258Z,74.13
2023-02-25T12:27:58.416Z,74.13
2023-02-25T12:30:57.153Z,73.78
2023-02-25T12:33:43.418Z,73.82
2023-02-25T12:36:57.105Z,73.81
2023-02-25T12:39:55.743Z,73.09
2023-02-25T12:42:35.744Z,72.76
2023-02-25T12:45:25.019Z,73.12
2023-02-25T12:48:02.685Z,73.05
2023-02-25T12:51:09.364Z,72.79
2023-02-25T12:53:42.996Z,72.56
2023-02-25T12:56:29.047Z,73.25
2023-02-25T12:59:10.650Z,73.23
2023-02-25T13:01:48.338Z,73.23
2023-02-25T13:04:22.250Z,72.93
2023-02-25T13:07:14.508Z,72.61
2023-02-25T13:10:09.670Z,73.25
2023-02-25T13:12:59.458Z,72.82
2023-02-25T13:15:58.722Z,72.88
2023-02-25T13:18:54.359Z,73.20
2023-02-25T13:21:28.186Z,72.50
2023-02-25T13:24:21.699Z,72.31
2023-02-25T13:27:20.900Z,71.77
2023-02-25T13:29:54.737Z,76.48
2023-02-25T13:32:41.393Z,78.92
2023-02-25T13:35:25.928Z,80.17
2023-02-25T13:38:09.112Z,79.78
2023-02-25T13:41:07.816Z,79.62
2023-02-25T13:44:13.034Z,79.29
2023-02-25T13:47:21.262Z,78.79
2023-02-25T13:50:21.631Z,78.10
2023-02-25T13:52:49.400Z,78.29
2023-02-25T13:55:27.043Z,78.32
2023-02-25T13:58:20.065Z,78.20
2023-02-25T14:00:54.203Z,77.85
2023-02-25T14:03:41.424Z,77.41
2023-02-25T14:06:23.049Z,77.14
2023-02-25T14:09:09.600Z,76.77
2023-02-25T14:12:12.438Z,76.47
2023-02-25T14:14:57.346Z,76.63
2023-02-25T14:17:51.108Z,75.76
2023-02-25T14:20:36.370Z,75.81
2023-02-25T14:23:22.363Z,75.83
2023-02-25T14:26:15.985Z,75.62
2023-02-25T14:28:51.178Z,75.74
2023-02-25T14:31:52.117Z,75.70
2023-02-25T14:34:37.889Z,75.67
2023-02-25T14:37:18.914Z,75.78
2023-02-25T14:40:12.788Z,75.84
2023-02-25T14:43:03.716Z,75.69
2023-02-25T14:45:45.410Z,75.78
2023-02-25T14:48:35.001Z,75.68
2023-02-25T14:51:33.561Z,75.70
2023-02-25T14:54:39.239Z,75.83
2023-02-25T14:57:16.507Z,76.02
2023-02-25T15:00:09.724Z,75.45
2023-02-25T15:02:47.025Z,75.49
2023-02-25T15:05:24.599Z,75.40
2023-02-25T15:08:19.113Z,75.76
2023-02-25T15:11:13.929Z,75.78
2023-02-25T15:14:03.798Z,75.90
2023-02-25T15:16:44.257Z,75.86
2023-02-25T15:19:34.545Z,76.15
2023-02-25T15:22:11.159Z,76.20
2023-02-25T15:24:41.585Z,76.22
2023-02-25T15:27:32.076Z,76.30
2023-02-25T15:30:12.052Z,76.03
2023-02-25T15:32:56.530Z,76.10
2023-02-25T15:35:52.210Z,76.06
2023-02-25T15:38:22.859Z,76.18
2023-02-25T15:40:52.990Z,75.70
2023-02-25T15:43:26.581Z,75.94
2023-02-25T15:46:06.595Z,75.87
2023-02-25T15:48:36.526Z,75.96
2023-02-25T15:51:09.195Z,75.59
2023-02-25T15:53:41.473Z,76.14
2023-02-25T15:56:12.449Z,76.04
2023-02-25T15:58:52.273Z,76.14
2023-02-25T16:01:30.971Z,76.00
2023-02-25T16:03:59.107Z,76.01
2023-02-25T16:06:39.581Z,75.89
2023-02-25T16:09:12.975Z,75.84
2023-02-25T16:11:53.692Z,75.60
2023-02-25T16:14:27.616Z,76.02
2023-02-25T16:17:03.826Z,75.92
2023-02-25T16:19:36.866Z,75.86
2023-02-25T16:22:12.786Z,75.97
2023-02-25T16:24:52.360Z,75.90
2023-02-25T16:27:55.321Z,76.03
2023-02-25T16:30:30.061Z,76.10
2023-02-25T16:33:21.954Z,75.93
2023-02-25T16:36:06.907Z,75.87
2023-02-25T16:38:50.868Z,76.00
2023-02-25T16:41:22.196Z,75.96
2023-02-25T16:43:50.200Z,76.08
2023-02-25T16:46:24.086Z,76.06
2023-02-25T16:48:57.095Z,76.06
2023-02-25T16:51:34.566Z,76.07
2023-02-25T16:54:18.761Z,76.18
2023-02-25T16:56:50.448Z,76.17
2023-02-25T16:59:21.783Z,76.36
2023-02-25T17:02:16.570Z,76.09
2023-02-25T17:04:51.732Z,76.03
2023-02-25T17:07:28.023Z,76.12
2023-02-25T17:10:02.995Z,76.28
2023-02-25T17:12:43.716Z,76.56
2023-02-25T17:15:24.794Z,76.33
2023-02-25T17:18:07.343Z,76.51
2023-02-25T17:20:37.281Z,76.45
2023-02-25T17:23:09.341Z,76.34
2023-02-25T17:25:40.861Z,76.40
2023-02-25T17:28:20.703Z,76.32
2023-02-25T17:30:49.542Z,76.41
2023-02-25T17:33:29.268Z,76.47
2023-02-25T17:36:01.813Z,76.67
2023-02-25T17:38:30.076Z,76.42
2023-02-25T17:40:59.452Z,76.41
2023-02-25T17:43:38.974Z,76.57
2023-02-25T17:46:37.936Z,76.45
2023-02-25T17:49:21.336Z,76.44
2023-02-25T17:51:55.432Z,76.38
2023-02-25T17:54:26.242Z,76.41
2023-02-25T17:57:00.886Z,76.21
2023-02-25T17:59:39.324Z,76.23
2023-02-25T18:02:30.858Z,76.17
2023-02-25T18:05:14.053Z,76.18
2023-02-25T18:07:43.830Z,76.27
2023-02-25T18:10:26.709Z,76.22
2023-02-25T18:12:55.400Z,76.40
2023-02-25T18:15:27.018Z,76.39
2023-02-25T18:18:01.527Z,76.26
2023-02-25T18:20:36.460Z,76.42
2023-02-25T18:23:07.509Z,76.46
2023-02-25T18:25:39.574Z,76.32
2023-02-25T18:28:16.213Z,76.43
2023-02-25T18:30:46.144Z,76.47
2023-02-25T18:33:14.025Z,76.45
2023-02-25T18:35:45.279Z,76.46
2023-02-25T18:38:19.469Z,76.22
2023-02-25T18:40:48.488Z,76.30
2023-02-25T18:43:21.915Z,76.49
2023-02-25T18:45:50.352Z,76.30
2023-02-25T18:48:18.222Z,76.36
2023-02-25T18:50:46.026Z,76.47
2023-02-25T18:53:15.313Z,76.26
2023-02-25T18:55:43.205Z,76.06
2023-02-25T18:58:18.682Z,76.32
2023-02-25T19:00:50.247Z,76.15
2023-02-25T19:03:33.651Z,76.00
2023-02-25T19:06:01.446Z,75.68
2023-02-25T19:08:30.091Z,76.17
2023-02-25T19:10:57.850Z,76.08
2023-02-25T19:13:42.077Z,76.07
2023-02-25T19:16:09.932Z,75.88
2023-02-25T19:18:39.504Z,75.60
2023-02-25T19:21:14.165Z,75.64
2023-02-25T19:23:42.455Z,75.64
2023-02-25T19:26:10.753Z,75.48
2023-02-25T19:28:38.849Z,75.81
2023-02-25T19:31:08.150Z,76.04
2023-02-25T19:33:36.168Z,75.78
2023-02-25T19:36:04.787Z,75.59
2023-02-25T19:38:32.801Z,75.75
2023-02-25T19:41:02.888Z,75.60
2023-02-25T19:43:32.533Z,75.61
2023-02-25T19:46:01.332Z,75.56
2023-02-25T19:48:29.513Z,75.75
2023-02-25T19:50:57.400Z,75.80
2023-02-25T19:53:25.262Z,76.10
2023-02-25T19:55:56.390Z,75.96
2023-02-25T19:58:25.004Z,75.95
2023-02-25T20:00:53.641Z,75.95
2023-02-25T20:03:21.675Z,75.88
2023-02-25T20:05:49.684Z,76.04
2023-02-25T20:08:17.937Z,75.89
2023-02-25T20:10:46.045Z,75.76
2023-02-25T20:13:15.259Z,75.92
2023-02-25T20:15:43.868Z,75.76
2023-02-25T20:18:11.767Z,75.80
2023-02-25T20:20:42.399Z,75.72
2023-02-25T20:23:10.153Z,75.66
2023-02-25T20:25:38.014Z,75.78
2023-02-25T20:28:07.101Z,75.91
2023-02-25T20:30:36.063Z,75.70
2023-02-25T20:33:04.766Z,75.79
2023-02-25T20:35:33.146Z,75.69
2023-02-25T20:38:27.636Z,75.67
2023-02-25T20:40:55.864Z,75.93
2023-02-25T20:43:27.446Z,75.42
2023-02-25T20:45:55.606Z,75.72
2023-02-25T20:48:32.502Z,75.45
2023-02-25T20:51:03.526Z,75.68
2023-02-25T20:53:31.580Z,75.78
2023-02-25T20:56:03.291Z,75.87
2023-02-25T20:58:31.240Z,76.02
2023-02-25T21:00:59.342Z,75.72
2023-02-25T21:03:27.830Z,75.91
2023-02-25T21:05:55.729Z,75.84
2023-02-25T21:08:24.614Z,75.85
2023-02-25T21:10:58.392Z,75.60
2023-02-25T21:13:26.342Z,76.01
2023-02-25T21:16:02.238Z,75.86
2023-02-25T21:18:31.151Z,75.83
2023-02-25T21:21:03.176Z,75.89
2023-02-25T21:23:32.763Z,75.78
2023-02-25T21:26:05.477Z,75.69
2023-02-25T21:28:33.344Z,75.22
2023-02-25T21:31:04.336Z,75.50
2023-02-25T21:33:33.700Z,75.64
2023-02-25T21:36:02.916Z,75.80
2023-02-25T21:38:31.167Z,75.64
2023-02-25T21:41:08.991Z,75.51
2023-02-25T21:43:38.193Z,75.45
2023-02-25T21:46:11.739Z,75.63
2023-02-25T21:48:41.174Z,75.69
2023-02-25T21:51:22.858Z,75.58
2023-02-25T21:53:55.947Z,75.94
2023-02-25T21:56:26.072Z,75.64
2023-02-25T21:58:59.910Z,75.64
2023-02-25T22:01:30.899Z,75.99
2023-02-25T22:03:59.372Z,75.62
2023-02-25T22:06:28.607Z,75.65
2023-02-25T22:08:57.879Z,75.72
2023-02-25T22:11:31.120Z,75.58
2023-02-25T22:14:01.498Z,75.50
2023-02-25T22:16:29.901Z,75.48
2023-02-25T22:18:59.164Z,75.64
2023-02-25T22:21:31.620Z,75.79
2023-02-25T22:24:01.742Z,75.74
2023-02-25T22:26:33.355Z,75.69
2023-02-25T22:29:08.891Z,75.44
2023-02-25T22:31:37.441Z,75.91
2023-02-25T22:34:06.444Z,75.53
2023-02-25T22:36:35.321Z,75.55
2023-02-25T22:39:06.370Z,75.44
2023-02-25T22:41:34.881Z,75.65
2023-02-25T22:44:06.505Z,75.45
2023-02-25T22:46:37.511Z,75.57
2023-02-25T22:49:07.769Z,75.54
2023-02-25T22:51:42.276Z,75.60
2023-02-25T22:54:15.913Z,75.44
2023-02-25T22:56:44.907Z,75.48
2023-02-25T22:59:14.709Z,75.24
2023-02-25T23:01:43.724Z,75.50
2023-02-25T23:04:11.688Z,75.64
2023-02-25T23:06:44.269Z,75.75
2023-02-25T23:09:17.428Z,75.56
2023-02-25T23:11:46.228Z,75.66
2023-02-25T23:14:14.942Z,75.61
2023-02-25T23:16:45.310Z,75.67
2023-02-25T23:19:17.068Z,75.79
2023-02-25T23:21:45.526Z,75.47
2023-02-25T23:24:18.598Z,75.76
2023-02-25T23:26:50.494Z,75.77
2023-02-25T23:29:18.478Z,75.48
2023-02-25T23:31:48.339Z,75.87
2023-02-25T23:34:23.910Z,75.83
2023-02-25T23:36:56.595Z,75.66
2023-02-25T23:39:24.986Z,75.80
2023-02-25T23:41:52.945Z,75.80
2023-02-25T23:44:20.872Z,75.66
2023-02-25T23:46:49.164Z,75.99
2023-02-25T23:49:18.004Z,75.76
2023-02-25T23:51:47.637Z,75.91
2023-02-25T23:54:20.102Z,75.95
2023-02-25T23:56:49.961Z,76.15
2023-02-25T23:59:17.848Z,75.94
